Terminal Aerodrome Forecast
Issued by NWS

Home | Current Version | Previous Version | Text Only | Print | Product List | Glossary Off
Versions: 1 2 3 4 5 6 7 8 9 10 11 12 13 14

000
FTUS43 KMPX 281450 AAB
TAFRNH
TAF AMD
KRNH 281450Z 2815/2912 15014G20KT P6SM -SHRA SCT020 OVC080
     FM281900 18016G24KT P6SM VCSH BKN035 OVC050
     FM290200 23010KT P6SM BKN060
     FM290800 25008KT P6SM SCT250=

USA.gov is the U.S. government's official web portal to all federal, state and local government web resources and services.